sensor_id;sensor_type;location;lat;lon;timestamp;P1;P2;P0
43479;PMS5003;29067;35.492;-97.520;2023-04-15T00:00:44;8;7;
43479;PMS5003;29067;35.492;-97.520;2023-04-15T00:03:12;8;8;
43479;PMS5003;29067;35.492;-97.520;2023-04-15T00:05:41;8;8;
43479;PMS5003;29067;35.492;-97.520;2023-04-15T00:08:09;7;7;
43479;PMS5003;29067;35.492;-97.520;2023-04-15T00:10:38;8;7;
43479;PMS5003;29067;35.492;-97.520;2023-04-15T00:13:06;10;10;
43479;PMS5003;29067;35.492;-97.520;2023-04-15T00:15:33;8;7;
43479;PMS5003;29067;35.492;-97.520;2023-04-15T00:18:02;8;7;
43479;PMS5003;29067;35.492;-97.520;2023-04-15T00:20:30;6;6;
43479;PMS5003;29067;35.492;-97.520;2023-04-15T00:22:59;5;5;
43479;PMS5003;29067;35.492;-97.520;2023-04-15T00:25:27;9;8;
43479;PMS5003;29067;35.492;-97.520;2023-04-15T00:27:55;6;6;
43479;PMS5003;29067;35.492;-97.520;2023-04-15T00:30:23;7;7;
43479;PMS5003;29067;35.492;-97.520;2023-04-15T00:32:51;9;7;
43479;PMS5003;29067;35.492;-97.520;2023-04-15T00:35:20;6;6;
43479;PMS5003;29067;35.492;-97.520;2023-04-15T00:37:49;7;7;
43479;PMS5003;29067;35.492;-97.520;2023-04-15T00:40:17;8;8;
43479;PMS5003;29067;35.492;-97.520;2023-04-15T00:42:47;11;8;
43479;PMS5003;29067;35.492;-97.520;2023-04-15T00:45:14;8;6;
43479;PMS5003;29067;35.492;-97.520;2023-04-15T00:47:42;6;6;
43479;PMS5003;29067;35.492;-97.520;2023-04-15T00:50:11;8;8;
43479;PMS5003;29067;35.492;-97.520;2023-04-15T00:52:39;8;8;
43479;PMS5003;29067;35.492;-97.520;2023-04-15T00:55:08;7;7;
43479;PMS5003;29067;35.492;-97.520;2023-04-15T00:57:36;6;6;
43479;PMS5003;29067;35.492;-97.520;2023-04-15T01:00:06;8;8;
43479;PMS5003;29067;35.492;-97.520;2023-04-15T01:02:35;8;8;
43479;PMS5003;29067;35.492;-97.520;2023-04-15T01:05:03;10;10;
43479;PMS5003;29067;35.492;-97.520;2023-04-15T01:07:35;10;9;
43479;PMS5003;29067;35.492;-97.520;2023-04-15T01:10:04;9;9;
43479;PMS5003;29067;35.492;-97.520;2023-04-15T01:12:33;11;11;
43479;PMS5003;29067;35.492;-97.520;2023-04-15T01:15:01;11;11;
43479;PMS5003;29067;35.492;-97.520;2023-04-15T01:17:30;12;11;
43479;PMS5003;29067;35.492;-97.520;2023-04-15T01:19:58;7;7;
43479;PMS5003;29067;35.492;-97.520;2023-04-15T01:22:27;8;7;
43479;PMS5003;29067;35.492;-97.520;2023-04-15T01:24:56;8;8;
43479;PMS5003;29067;35.492;-97.520;2023-04-15T01:27:30;8;8;
43479;PMS5003;29067;35.492;-97.520;2023-04-15T01:29:58;9;9;
43479;PMS5003;29067;35.492;-97.520;2023-04-15T01:32:32;8;8;
43479;PMS5003;29067;35.492;-97.520;2023-04-15T01:35:00;8;8;
43479;PMS5003;29067;35.492;-97.520;2023-04-15T01:37:29;7;6;
43479;PMS5003;29067;35.492;-97.520;2023-04-15T01:39:58;7;6;
43479;PMS5003;29067;35.492;-97.520;2023-04-15T01:42:26;7;7;
43479;PMS5003;29067;35.492;-97.520;2023-04-15T01:44:55;7;7;
43479;PMS5003;29067;35.492;-97.520;2023-04-15T01:47:27;7;7;
43479;PMS5003;29067;35.492;-97.520;2023-04-15T01:49:57;8;7;
43479;PMS5003;29067;35.492;-97.520;2023-04-15T01:52:25;8;7;
43479;PMS5003;29067;35.492;-97.520;2023-04-15T01:54:53;7;6;
43479;PMS5003;29067;35.492;-97.520;2023-04-15T01:57:20;8;7;
43479;PMS5003;29067;35.492;-97.520;2023-04-15T01:59:48;8;8;
43479;PMS5003;29067;35.492;-97.520;2023-04-15T02:02:16;8;8;
43479;PMS5003;29067;35.492;-97.520;2023-04-15T02:04:45;7;7;
43479;PMS5003;29067;35.492;-97.520;2023-04-15T02:07:13;11;9;
43479;PMS5003;29067;35.492;-97.520;2023-04-15T02:09:42;11;10;
43479;PMS5003;29067;35.492;-97.520;2023-04-15T02:12:11;7;7;
43479;PMS5003;29067;35.492;-97.520;2023-04-15T02:14:39;9;8;
43479;PMS5003;29067;35.492;-97.520;2023-04-15T02:17:06;9;8;
43479;PMS5003;29067;35.492;-97.520;2023-04-15T02:19:35;9;9;
43479;PMS5003;29067;35.492;-97.520;2023-04-15T02:22:03;8;8;
43479;PMS5003;29067;35.492;-97.520;2023-04-15T02:24:32;7;7;
43479;PMS5003;29067;35.492;-97.520;2023-04-15T02:27:00;8;8;
43479;PMS5003;29067;35.492;-97.520;2023-04-15T02:29:28;8;8;
43479;PMS5003;29067;35.492;-97.520;2023-04-15T02:31:57;6;6;
43479;PMS5003;29067;35.492;-97.520;2023-04-15T02:34:25;8;8;
43479;PMS5003;29067;35.492;-97.520;2023-04-15T02:36:52;9;9;
43479;PMS5003;29067;35.492;-97.520;2023-04-15T02:39:20;5;5;
43479;PMS5003;29067;35.492;-97.520;2023-04-15T02:41:48;6;6;
43479;PMS5003;29067;35.492;-97.520;2023-04-15T02:44:17;7;7;
43479;PMS5003;29067;35.492;-97.520;2023-04-15T02:46:45;7;7;
43479;PMS5003;29067;35.492;-97.520;2023-04-15T02:49:13;6;6;
43479;PMS5003;29067;35.492;-97.520;2023-04-15T02:51:40;7;7;
43479;PMS5003;29067;35.492;-97.520;2023-04-15T02:54:09;9;7;
43479;PMS5003;29067;35.492;-97.520;2023-04-15T02:56:36;8;7;
43479;PMS5003;29067;35.492;-97.520;2023-04-15T02:59:04;8;8;
43479;PMS5003;29067;35.492;-97.520;2023-04-15T03:01:32;8;7;
43479;PMS5003;29067;35.492;-97.520;2023-04-15T03:04:00;9;9;
43479;PMS5003;29067;35.492;-97.520;2023-04-15T03:06:29;8;7;
43479;PMS5003;29067;35.492;-97.520;2023-04-15T03:08:57;7;7;
43479;PMS5003;29067;35.492;-97.520;2023-04-15T03:11:25;8;8;
43479;PMS5003;29067;35.492;-97.520;2023-04-15T03:13:54;8;8;
43479;PMS5003;29067;35.492;-97.520;2023-04-15T03:16:22;8;7;
43479;PMS5003;29067;35.492;-97.520;2023-04-15T03:18:50;6;5;
43479;PMS5003;29067;35.492;-97.520;2023-04-15T03:21:18;8;8;
43479;PMS5003;29067;35.492;-97.520;2023-04-15T03:23:47;7;7;
43479;PMS5003;29067;35.492;-97.520;2023-04-15T03:26:23;7;7;
43479;PMS5003;29067;35.492;-97.520;2023-04-15T03:28:53;11;10;
43479;PMS5003;29067;35.492;-97.520;2023-04-15T03:31:21;9;9;
43479;PMS5003;29067;35.492;-97.520;2023-04-15T03:33:49;7;7;
43479;PMS5003;29067;35.492;-97.520;2023-04-15T03:36:18;10;9;
43479;PMS5003;29067;35.492;-97.520;2023-04-15T03:38:46;9;9;
43479;PMS5003;29067;35.492;-97.520;2023-04-15T03:41:13;11;10;
43479;PMS5003;29067;35.492;-97.520;2023-04-15T03:43:42;11;10;
43479;PMS5003;29067;35.492;-97.520;2023-04-15T03:46:09;9;8;
43479;PMS5003;29067;35.492;-97.520;2023-04-15T03:48:42;7;7;
43479;PMS5003;29067;35.492;-97.520;2023-04-15T03:51:09;8;7;
43479;PMS5003;29067;35.492;-97.520;2023-04-15T03:53:37;9;9;
43479;PMS5003;29067;35.492;-97.520;2023-04-15T03:56:05;9;9;
43479;PMS5003;29067;35.492;-97.520;2023-04-15T03:58:33;8;8;
43479;PMS5003;29067;35.492;-97.520;2023-04-15T04:01:02;7;7;
43479;PMS5003;29067;35.492;-97.520;2023-04-15T04:03:30;9;9;
43479;PMS5003;29067;35.492;-97.520;2023-04-15T04:05:58;8;7;
43479;PMS5003;29067;35.492;-97.520;2023-04-15T04:08:25;7;7;
43479;PMS5003;29067;35.492;-97.520;2023-04-15T04:10:53;9;8;
43479;PMS5003;29067;35.492;-97.520;2023-04-15T04:13:22;6;6;
43479;PMS5003;29067;35.492;-97.520;2023-04-15T04:15:50;8;8;
43479;PMS5003;29067;35.492;-97.520;2023-04-15T04:18:18;8;8;
43479;PMS5003;29067;35.492;-97.520;2023-04-15T04:20:46;9;8;
43479;PMS5003;29067;35.492;-97.520;2023-04-15T04:23:14;9;9;
43479;PMS5003;29067;35.492;-97.520;2023-04-15T04:25:41;8;8;
43479;PMS5003;29067;35.492;-97.520;2023-04-15T04:28:09;8;8;
43479;PMS5003;29067;35.492;-97.520;2023-04-15T04:30:37;9;9;
43479;PMS5003;29067;35.492;-97.520;2023-04-15T04:33:06;10;9;
43479;PMS5003;29067;35.492;-97.520;2023-04-15T04:35:34;8;8;
43479;PMS5003;29067;35.492;-97.520;2023-04-15T04:38:02;8;8;
43479;PMS5003;29067;35.492;-97.520;2023-04-15T04:40:30;10;9;
43479;PMS5003;29067;35.492;-97.520;2023-04-15T04:42:59;9;9;
43479;PMS5003;29067;35.492;-97.520;2023-04-15T04:45:26;8;8;
43479;PMS5003;29067;35.492;-97.520;2023-04-15T04:47:54;8;8;
43479;PMS5003;29067;35.492;-97.520;2023-04-15T04:50:22;9;8;
43479;PMS5003;29067;35.492;-97.520;2023-04-15T04:52:49;7;7;
43479;PMS5003;29067;35.492;-97.520;2023-04-15T04:55:17;7;7;
43479;PMS5003;29067;35.492;-97.520;2023-04-15T04:57:45;7;7;
43479;PMS5003;29067;35.492;-97.520;2023-04-15T05:00:13;9;8;
43479;PMS5003;29067;35.492;-97.520;2023-04-15T05:02:42;9;9;
43479;PMS5003;29067;35.492;-97.520;2023-04-15T05:05:09;8;8;
43479;PMS5003;29067;35.492;-97.520;2023-04-15T05:07:38;9;9;
43479;PMS5003;29067;35.492;-97.520;2023-04-15T05:10:06;9;8;
43479;PMS5003;29067;35.492;-97.520;2023-04-15T05:12:35;8;8;
43479;PMS5003;29067;35.492;-97.520;2023-04-15T05:15:05;8;8;
43479;PMS5003;29067;35.492;-97.520;2023-04-15T05:17:33;10;9;
43479;PMS5003;29067;35.492;-97.520;2023-04-15T05:20:01;8;8;
43479;PMS5003;29067;35.492;-97.520;2023-04-15T05:22:29;6;6;
43479;PMS5003;29067;35.492;-97.520;2023-04-15T05:24:57;8;8;
43479;PMS5003;29067;35.492;-97.520;2023-04-15T05:27:26;9;8;
43479;PMS5003;29067;35.492;-97.520;2023-04-15T05:29:53;9;9;
43479;PMS5003;29067;35.492;-97.520;2023-04-15T05:32:21;11;9;
43479;PMS5003;29067;35.492;-97.520;2023-04-15T05:34:49;9;8;
43479;PMS5003;29067;35.492;-97.520;2023-04-15T05:37:17;10;10;
43479;PMS5003;29067;35.492;-97.520;2023-04-15T05:39:45;9;9;
43479;PMS5003;29067;35.492;-97.520;2023-04-15T05:42:12;10;9;
43479;PMS5003;29067;35.492;-97.520;2023-04-15T05:44:40;9;9;
43479;PMS5003;29067;35.492;-97.520;2023-04-15T05:47:08;11;10;
43479;PMS5003;29067;35.492;-97.520;2023-04-15T05:49:36;10;10;
43479;PMS5003;29067;35.492;-97.520;2023-04-15T05:52:04;9;9;
43479;PMS5003;29067;35.492;-97.520;2023-04-15T05:54:32;10;10;
43479;PMS5003;29067;35.492;-97.520;2023-04-15T05:57:00;10;10;
43479;PMS5003;29067;35.492;-97.520;2023-04-15T05:59:27;9;9;
43479;PMS5003;29067;35.492;-97.520;2023-04-15T06:01:55;11;10;
43479;PMS5003;29067;35.492;-97.520;2023-04-15T06:04:24;11;9;
43479;PMS5003;29067;35.492;-97.520;2023-04-15T06:06:52;12;10;
43479;PMS5003;29067;35.492;-97.520;2023-04-15T06:09:20;10;10;
43479;PMS5003;29067;35.492;-97.520;2023-04-15T06:11:47;12;12;
43479;PMS5003;29067;35.492;-97.520;2023-04-15T06:14:15;10;10;
43479;PMS5003;29067;35.492;-97.520;2023-04-15T06:16:43;12;10;
43479;PMS5003;29067;35.492;-97.520;2023-04-15T06:19:11;11;10;
43479;PMS5003;29067;35.492;-97.520;2023-04-15T06:21:39;10;9;
43479;PMS5003;29067;35.492;-97.520;2023-04-15T06:24:07;11;11;
43479;PMS5003;29067;35.492;-97.520;2023-04-15T06:26:35;10;10;
43479;PMS5003;29067;35.492;-97.520;2023-04-15T06:29:02;11;10;
43479;PMS5003;29067;35.492;-97.520;2023-04-15T06:31:30;11;11;
43479;PMS5003;29067;35.492;-97.520;2023-04-15T06:33:58;10;9;
43479;PMS5003;29067;35.492;-97.520;2023-04-15T06:36:25;11;11;
43479;PMS5003;29067;35.492;-97.520;2023-04-15T06:38:53;9;8;
43479;PMS5003;29067;35.492;-97.520;2023-04-15T06:41:21;11;10;
43479;PMS5003;29067;35.492;-97.520;2023-04-15T06:43:49;13;12;
43479;PMS5003;29067;35.492;-97.520;2023-04-15T06:46:17;13;13;
43479;PMS5003;29067;35.492;-97.520;2023-04-15T06:48:44;12;11;
43479;PMS5003;29067;35.492;-97.520;2023-04-15T06:51:12;12;12;
43479;PMS5003;29067;35.492;-97.520;2023-04-15T06:53:40;10;10;
43479;PMS5003;29067;35.492;-97.520;2023-04-15T06:56:08;14;14;
43479;PMS5003;29067;35.492;-97.520;2023-04-15T06:58:36;12;12;
43479;PMS5003;29067;35.492;-97.520;2023-04-15T07:01:04;10;10;
43479;PMS5003;29067;35.492;-97.520;2023-04-15T07:03:33;12;12;
43479;PMS5003;29067;35.492;-97.520;2023-04-15T07:06:00;13;12;
43479;PMS5003;29067;35.492;-97.520;2023-04-15T07:08:28;12;11;
43479;PMS5003;29067;35.492;-97.520;2023-04-15T07:10:56;11;10;
43479;PMS5003;29067;35.492;-97.520;2023-04-15T07:13:23;12;11;
43479;PMS5003;29067;35.492;-97.520;2023-04-15T07:15:51;11;10;
43479;PMS5003;29067;35.492;-97.520;2023-04-15T07:18:19;13;13;
43479;PMS5003;29067;35.492;-97.520;2023-04-15T07:20:47;12;12;
43479;PMS5003;29067;35.492;-97.520;2023-04-15T07:23:15;13;12;
43479;PMS5003;29067;35.492;-97.520;2023-04-15T07:25:43;14;13;
43479;PMS5003;29067;35.492;-97.520;2023-04-15T07:28:10;12;11;
43479;PMS5003;29067;35.492;-97.520;2023-04-15T07:30:38;13;13;
43479;PMS5003;29067;35.492;-97.520;2023-04-15T07:33:07;13;12;
43479;PMS5003;29067;35.492;-97.520;2023-04-15T07:35:35;12;12;
43479;PMS5003;29067;35.492;-97.520;2023-04-15T07:38:03;13;13;
43479;PMS5003;29067;35.492;-97.520;2023-04-15T07:40:31;13;13;
43479;PMS5003;29067;35.492;-97.520;2023-04-15T07:42:59;13;13;
43479;PMS5003;29067;35.492;-97.520;2023-04-15T07:45:26;12;12;
43479;PMS5003;29067;35.492;-97.520;2023-04-15T07:47:54;17;14;
43479;PMS5003;29067;35.492;-97.520;2023-04-15T07:50:22;12;12;
43479;PMS5003;29067;35.492;-97.520;2023-04-15T07:52:50;12;12;
43479;PMS5003;29067;35.492;-97.520;2023-04-15T07:55:18;13;13;
43479;PMS5003;29067;35.492;-97.520;2023-04-15T07:57:47;14;14;
43479;PMS5003;29067;35.492;-97.520;2023-04-15T08:00:15;12;11;
43479;PMS5003;29067;35.492;-97.520;2023-04-15T08:02:43;12;12;
43479;PMS5003;29067;35.492;-97.520;2023-04-15T08:05:12;14;14;
43479;PMS5003;29067;35.492;-97.520;2023-04-15T08:07:40;13;13;
43479;PMS5003;29067;35.492;-97.520;2023-04-15T08:10:08;15;14;
43479;PMS5003;29067;35.492;-97.520;2023-04-15T08:12:36;13;13;
43479;PMS5003;29067;35.492;-97.520;2023-04-15T08:15:05;13;13;
43479;PMS5003;29067;35.492;-97.520;2023-04-15T08:17:34;14;12;
43479;PMS5003;29067;35.492;-97.520;2023-04-15T08:20:02;12;12;
43479;PMS5003;29067;35.492;-97.520;2023-04-15T08:22:31;14;14;
43479;PMS5003;29067;35.492;-97.520;2023-04-15T08:24:59;12;12;
43479;PMS5003;29067;35.492;-97.520;2023-04-15T08:27:27;13;12;
43479;PMS5003;29067;35.492;-97.520;2023-04-15T08:29:55;15;14;
43479;PMS5003;29067;35.492;-97.520;2023-04-15T08:32:22;14;13;
43479;PMS5003;29067;35.492;-97.520;2023-04-15T08:34:50;14;14;
43479;PMS5003;29067;35.492;-97.520;2023-04-15T08:37:18;12;12;
43479;PMS5003;29067;35.492;-97.520;2023-04-15T08:39:45;15;14;
43479;PMS5003;29067;35.492;-97.520;2023-04-15T08:42:15;15;14;
43479;PMS5003;29067;35.492;-97.520;2023-04-15T08:44:45;19;15;
43479;PMS5003;29067;35.492;-97.520;2023-04-15T08:47:15;15;14;
43479;PMS5003;29067;35.492;-97.520;2023-04-15T08:49:46;15;15;
43479;PMS5003;29067;35.492;-97.520;2023-04-15T08:52:14;14;13;
43479;PMS5003;29067;35.492;-97.520;2023-04-15T08:54:42;15;15;
43479;PMS5003;29067;35.492;-97.520;2023-04-15T08:57:11;14;14;
43479;PMS5003;29067;35.492;-97.520;2023-04-15T08:59:39;13;13;
43479;PMS5003;29067;35.492;-97.520;2023-04-15T09:02:08;15;15;
43479;PMS5003;29067;35.492;-97.520;2023-04-15T09:04:36;13;13;
43479;PMS5003;29067;35.492;-97.520;2023-04-15T09:07:04;15;15;
43479;PMS5003;29067;35.492;-97.520;2023-04-15T09:09:32;14;14;
43479;PMS5003;29067;35.492;-97.520;2023-04-15T09:12:00;14;14;
43479;PMS5003;29067;35.492;-97.520;2023-04-15T09:14:28;13;13;
43479;PMS5003;29067;35.492;-97.520;2023-04-15T09:16:57;15;15;
43479;PMS5003;29067;35.492;-97.520;2023-04-15T09:19:25;15;15;
43479;PMS5003;29067;35.492;-97.520;2023-04-15T09:21:55;16;16;
43479;PMS5003;29067;35.492;-97.520;2023-04-15T09:24:24;15;15;
43479;PMS5003;29067;35.492;-97.520;2023-04-15T09:27:01;14;14;
43479;PMS5003;29067;35.492;-97.520;2023-04-15T09:29:29;16;15;
43479;PMS5003;29067;35.492;-97.520;2023-04-15T09:31:57;17;17;
43479;PMS5003;29067;35.492;-97.520;2023-04-15T09:34:36;16;15;
43479;PMS5003;29067;35.492;-97.520;2023-04-15T09:37:04;15;15;
43479;PMS5003;29067;35.492;-97.520;2023-04-15T09:39:48;21;17;
43479;PMS5003;29067;35.492;-97.520;2023-04-15T09:42:18;15;14;
43479;PMS5003;29067;35.492;-97.520;2023-04-15T09:44:46;16;15;
43479;PMS5003;29067;35.492;-97.520;2023-04-15T09:47:25;16;15;
43479;PMS5003;29067;35.492;-97.520;2023-04-15T09:49:54;15;14;
43479;PMS5003;29067;35.492;-97.520;2023-04-15T09:52:23;16;16;
43479;PMS5003;29067;35.492;-97.520;2023-04-15T09:54:52;17;15;
43479;PMS5003;29067;35.492;-97.520;2023-04-15T09:57:20;15;15;
43479;PMS5003;29067;35.492;-97.520;2023-04-15T09:59:48;16;15;
43479;PMS5003;29067;35.492;-97.520;2023-04-15T10:02:18;18;18;
43479;PMS5003;29067;35.492;-97.520;2023-04-15T10:04:47;15;15;
43479;PMS5003;29067;35.492;-97.520;2023-04-15T10:07:15;14;14;
43479;PMS5003;29067;35.492;-97.520;2023-04-15T10:09:44;16;16;
43479;PMS5003;29067;35.492;-97.520;2023-04-15T10:12:13;15;15;
43479;PMS5003;29067;35.492;-97.520;2023-04-15T10:14:43;15;15;
43479;PMS5003;29067;35.492;-97.520;2023-04-15T10:17:14;18;18;
43479;PMS5003;29067;35.492;-97.520;2023-04-15T10:19:44;14;14;
43479;PMS5003;29067;35.492;-97.520;2023-04-15T10:22:15;18;16;
43479;PMS5003;29067;35.492;-97.520;2023-04-15T10:24:44;16;15;
43479;PMS5003;29067;35.492;-97.520;2023-04-15T10:27:14;17;16;
43479;PMS5003;29067;35.492;-97.520;2023-04-15T10:29:43;17;16;
43479;PMS5003;29067;35.492;-97.520;2023-04-15T10:32:11;14;14;
43479;PMS5003;29067;35.492;-97.520;2023-04-15T10:34:40;15;14;
43479;PMS5003;29067;35.492;-97.520;2023-04-15T10:37:09;14;14;
43479;PMS5003;29067;35.492;-97.520;2023-04-15T10:39:38;7;7;
43479;PMS5003;29067;35.492;-97.520;2023-04-15T10:42:08;6;6;
43479;PMS5003;29067;35.492;-97.520;2023-04-15T10:44:37;5;4;
43479;PMS5003;29067;35.492;-97.520;2023-04-15T10:47:11;4;3;
43479;PMS5003;29067;35.492;-97.520;2023-04-15T10:49:44;5;4;
43479;PMS5003;29067;35.492;-97.520;2023-04-15T10:52:14;3;3;
43479;PMS5003;29067;35.492;-97.520;2023-04-15T10:54:43;5;5;
43479;PMS5003;29067;35.492;-97.520;2023-04-15T10:57:14;4;3;
43479;PMS5003;29067;35.492;-97.520;2023-04-15T11:03:05;2;2;
43479;PMS5003;29067;35.492;-97.520;2023-04-15T11:05:50;3;2;
43479;PMS5003;29067;35.492;-97.520;2023-04-15T11:08:18;4;2;
43479;PMS5003;29067;35.492;-97.520;2023-04-15T11:10:51;5;4;
43479;PMS5003;29067;35.492;-97.520;2023-04-15T11:13:21;3;3;
43479;PMS5003;29067;35.492;-97.520;2023-04-15T11:15:51;3;2;
43479;PMS5003;29067;35.492;-97.520;2023-04-15T11:18:24;3;3;
43479;PMS5003;29067;35.492;-97.520;2023-04-15T11:20:54;7;2;
43479;PMS5003;29067;35.492;-97.520;2023-04-15T11:23:27;6;4;
43479;PMS5003;29067;35.492;-97.520;2023-04-15T11:25:57;4;3;
43479;PMS5003;29067;35.492;-97.520;2023-04-15T11:28:26;5;5;
43479;PMS5003;29067;35.492;-97.520;2023-04-15T11:30:55;6;4;
43479;PMS5003;29067;35.492;-97.520;2023-04-15T11:33:24;4;3;
43479;PMS5003;29067;35.492;-97.520;2023-04-15T11:35:52;4;3;
43479;PMS5003;29067;35.492;-97.520;2023-04-15T11:38:21;2;2;
43479;PMS5003;29067;35.492;-97.520;2023-04-15T11:40:49;3;2;
43479;PMS5003;29067;35.492;-97.520;2023-04-15T11:43:18;3;3;
43479;PMS5003;29067;35.492;-97.520;2023-04-15T11:45:48;3;2;
43479;PMS5003;29067;35.492;-97.520;2023-04-15T11:48:17;3;3;
43479;PMS5003;29067;35.492;-97.520;2023-04-15T11:50:51;7;6;
43479;PMS5003;29067;35.492;-97.520;2023-04-15T11:53:20;7;7;
43479;PMS5003;29067;35.492;-97.520;2023-04-15T11:55:50;21;21;
43479;PMS5003;29067;35.492;-97.520;2023-04-15T11:58:20;38;38;
43479;PMS5003;29067;35.492;-97.520;2023-04-15T12:00:50;18;18;
43479;PMS5003;29067;35.492;-97.520;2023-04-15T12:03:21;3;2;
43479;PMS5003;29067;35.492;-97.520;2023-04-15T12:06:22;6;6;
43479;PMS5003;29067;35.492;-97.520;2023-04-15T12:08:54;27;26;
43479;PMS5003;29067;35.492;-97.520;2023-04-15T12:11:29;25;21;
43479;PMS5003;29067;35.492;-97.520;2023-04-15T12:13:58;10;9;
43479;PMS5003;29067;35.492;-97.520;2023-04-15T12:16:30;18;18;
43479;PMS5003;29067;35.492;-97.520;2023-04-15T12:19:01;19;19;
43479;PMS5003;29067;35.492;-97.520;2023-04-15T12:21:33;19;19;
43479;PMS5003;29067;35.492;-97.520;2023-04-15T12:24:04;2;2;
43479;PMS5003;29067;35.492;-97.520;2023-04-15T12:26:35;14;13;
43479;PMS5003;29067;35.492;-97.520;2023-04-15T12:29:09;19;18;
43479;PMS5003;29067;35.492;-97.520;2023-04-15T12:31:46;28;27;
43479;PMS5003;29067;35.492;-97.520;2023-04-15T12:34:16;27;27;
43479;PMS5003;29067;35.492;-97.520;2023-04-15T12:36:44;5;5;
43479;PMS5003;29067;35.492;-97.520;2023-04-15T12:39:12;10;10;
43479;PMS5003;29067;35.492;-97.520;2023-04-15T12:41:40;5;5;
43479;PMS5003;29067;35.492;-97.520;2023-04-15T12:44:09;3;3;
43479;PMS5003;29067;35.492;-97.520;2023-04-15T12:46:36;4;2;
43479;PMS5003;29067;35.492;-97.520;2023-04-15T12:49:04;3;3;
43479;PMS5003;29067;35.492;-97.520;2023-04-15T12:51:32;2;2;
43479;PMS5003;29067;35.492;-97.520;2023-04-15T12:54:00;3;3;
43479;PMS5003;29067;35.492;-97.520;2023-04-15T12:56:28;3;2;
43479;PMS5003;29067;35.492;-97.520;2023-04-15T12:58:56;5;4;
43479;PMS5003;29067;35.492;-97.520;2023-04-15T13:01:23;3;3;
43479;PMS5003;29067;35.492;-97.520;2023-04-15T13:03:51;5;4;
43479;PMS5003;29067;35.492;-97.520;2023-04-15T13:06:19;3;3;
43479;PMS5003;29067;35.492;-97.520;2023-04-15T13:08:47;4;3;
43479;PMS5003;29067;35.492;-97.520;2023-04-15T13:11:16;4;4;
43479;PMS5003;29067;35.492;-97.520;2023-04-15T13:13:44;6;5;
43479;PMS5003;29067;35.492;-97.520;2023-04-15T13:16:12;2;2;
43479;PMS5003;29067;35.492;-97.520;2023-04-15T13:18:40;3;3;
43479;PMS5003;29067;35.492;-97.520;2023-04-15T13:21:08;3;3;
43479;PMS5003;29067;35.492;-97.520;2023-04-15T13:23:37;3;3;
43479;PMS5003;29067;35.492;-97.520;2023-04-15T13:26:08;4;4;
43479;PMS5003;29067;35.492;-97.520;2023-04-15T13:28:36;7;4;
43479;PMS5003;29067;35.492;-97.520;2023-04-15T13:31:05;3;3;
43479;PMS5003;29067;35.492;-97.520;2023-04-15T13:33:33;3;3;
43479;PMS5003;29067;35.492;-97.520;2023-04-15T13:36:02;3;3;
43479;PMS5003;29067;35.492;-97.520;2023-04-15T13:38:32;3;3;
43479;PMS5003;29067;35.492;-97.520;2023-04-15T13:41:00;4;3;
43479;PMS5003;29067;35.492;-97.520;2023-04-15T13:43:29;3;3;
43479;PMS5003;29067;35.492;-97.520;2023-04-15T13:46:02;4;4;
43479;PMS5003;29067;35.492;-97.520;2023-04-15T13:48:30;4;4;
43479;PMS5003;29067;35.492;-97.520;2023-04-15T13:50:58;4;4;
43479;PMS5003;29067;35.492;-97.520;2023-04-15T13:53:26;3;2;
43479;PMS5003;29067;35.492;-97.520;2023-04-15T13:55:54;4;4;
43479;PMS5003;29067;35.492;-97.520;2023-04-15T13:58:21;3;3;
43479;PMS5003;29067;35.492;-97.520;2023-04-15T14:00:49;5;5;
43479;PMS5003;29067;35.492;-97.520;2023-04-15T14:03:17;3;3;
43479;PMS5003;29067;35.492;-97.520;2023-04-15T14:05:45;3;3;
43479;PMS5003;29067;35.492;-97.520;2023-04-15T14:08:18;5;4;
43479;PMS5003;29067;35.492;-97.520;2023-04-15T14:10:47;5;4;
43479;PMS5003;29067;35.492;-97.520;2023-04-15T14:13:14;7;3;
43479;PMS5003;29067;35.492;-97.520;2023-04-15T14:15:42;2;2;
43479;PMS5003;29067;35.492;-97.520;2023-04-15T14:18:10;4;4;
43479;PMS5003;29067;35.492;-97.520;2023-04-15T14:20:38;3;3;
43479;PMS5003;29067;35.492;-97.520;2023-04-15T14:23:06;4;4;
43479;PMS5003;29067;35.492;-97.520;2023-04-15T14:25:33;5;4;
43479;PMS5003;29067;35.492;-97.520;2023-04-15T14:28:03;4;4;
43479;PMS5003;29067;35.492;-97.520;2023-04-15T14:30:31;6;5;
43479;PMS5003;29067;35.492;-97.520;2023-04-15T14:33:05;4;3;
43479;PMS5003;29067;35.492;-97.520;2023-04-15T14:35:39;5;3;
43479;PMS5003;29067;35.492;-97.520;2023-04-15T14:38:07;4;4;
43479;PMS5003;29067;35.492;-97.520;2023-04-15T14:40:35;4;4;
43479;PMS5003;29067;35.492;-97.520;2023-04-15T14:43:03;4;4;
43479;PMS5003;29067;35.492;-97.520;2023-04-15T14:45:30;4;3;
43479;PMS5003;29067;35.492;-97.520;2023-04-15T14:47:59;13;12;
43479;PMS5003;29067;35.492;-97.520;2023-04-15T14:50:27;12;12;
43479;PMS5003;29067;35.492;-97.520;2023-04-15T14:52:54;14;13;
43479;PMS5003;29067;35.492;-97.520;2023-04-15T14:55:22;13;13;
43479;PMS5003;29067;35.492;-97.520;2023-04-15T15:14:11;18;17;
43479;PMS5003;29067;35.492;-97.520;2023-04-15T15:16:38;5;4;
43479;PMS5003;29067;35.492;-97.520;2023-04-15T15:19:06;5;4;
43479;PMS5003;29067;35.492;-97.520;2023-04-15T15:21:33;5;5;
43479;PMS5003;29067;35.492;-97.520;2023-04-15T15:24:01;5;5;
43479;PMS5003;29067;35.492;-97.520;2023-04-15T15:26:29;6;6;
43479;PMS5003;29067;35.492;-97.520;2023-04-15T15:28:58;5;5;
43479;PMS5003;29067;35.492;-97.520;2023-04-15T15:31:25;5;5;
43479;PMS5003;29067;35.492;-97.520;2023-04-15T15:33:53;5;5;
43479;PMS5003;29067;35.492;-97.520;2023-04-15T15:36:21;7;7;
43479;PMS5003;29067;35.492;-97.520;2023-04-15T15:38:49;7;6;
43479;PMS5003;29067;35.492;-97.520;2023-04-15T15:41:18;5;5;
43479;PMS5003;29067;35.492;-97.520;2023-04-15T15:43:45;6;6;
43479;PMS5003;29067;35.492;-97.520;2023-04-15T15:46:13;6;6;
43479;PMS5003;29067;35.492;-97.520;2023-04-15T15:48:44;4;4;
43479;PMS5003;29067;35.492;-97.520;2023-04-15T15:51:13;6;6;
43479;PMS5003;29067;35.492;-97.520;2023-04-15T15:53:41;7;6;
43479;PMS5003;29067;35.492;-97.520;2023-04-15T15:56:10;6;6;
43479;PMS5003;29067;35.492;-97.520;2023-04-15T15:58:37;6;6;
43479;PMS5003;29067;35.492;-97.520;2023-04-15T16:01:06;10;9;
43479;PMS5003;29067;35.492;-97.520;2023-04-15T16:03:34;8;7;
43479;PMS5003;29067;35.492;-97.520;2023-04-15T16:06:03;6;6;
43479;PMS5003;29067;35.492;-97.520;2023-04-15T16:08:31;6;5;
43479;PMS5003;29067;35.492;-97.520;2023-04-15T16:11:04;9;9;
43479;PMS5003;29067;35.492;-97.520;2023-04-15T16:13:44;21;21;
43479;PMS5003;29067;35.492;-97.520;2023-04-15T16:16:22;20;20;
43479;PMS5003;29067;35.492;-97.520;2023-04-15T16:18:50;21;21;
43479;PMS5003;29067;35.492;-97.520;2023-04-15T16:21:28;9;9;
43479;PMS5003;29067;35.492;-97.520;2023-04-15T16:24:09;7;7;
43479;PMS5003;29067;35.492;-97.520;2023-04-15T16:26:39;6;6;
43479;PMS5003;29067;35.492;-97.520;2023-04-15T16:29:13;6;5;
43479;PMS5003;29067;35.492;-97.520;2023-04-15T16:31:43;7;6;
43479;PMS5003;29067;35.492;-97.520;2023-04-15T16:34:12;5;5;
43479;PMS5003;29067;35.492;-97.520;2023-04-15T16:36:41;7;7;